Impacts TAF Board INFO
FOR SITUATIONAL AWARENESS. NOT TO BE USED FOR FLIGHT PLANNING PURPOSES.
IDs:

KSFO - San Francisco Intl, CA, US

Issued at 1220 UTC 19 Jun 2018
Updated at 1235 UTC 19 Jun 2018
Potential Impact None Slight Moderate High
Time1156Z 19/13Z 19/14Z 19/15Z 19/16Z 19/17Z 19/18Z 19/19Z 19/20Z 19/21Z 19/22Z 19/23Z 20/00Z 20/01Z>>
Type OBS PRVL PRVL PRVL PRVL
  [TEMP]  
PRVL
  [TEMP]  
PRVL PRVL PRVL PRVL PRVL PRVL PRVL PRVL
VIS 10 >6 >6 >6 >6 >6 >6 >6 >6 >6 >6 >6 >6 >6
CIG 7 8 8 8 8
  [8]  
8
  [8]  
-- -- -- -- -- -- -- --
Cover OVC BKN BKN BKN BKN
  [SCT]  
BKN
  [SCT]  
FEW FEW FEW SKC SKC SKC SKC SKC
FltCat IFR IFR IFR IFR IFR
  [IFR]  
IFR
  [IFR]  
VFR VFR VFR VFR VFR VFR VFR VFR
WX -- -- -- -- --
  [--]  
--
  [--]  
-- -- -- -- -- -- -- --
WDir 260 280 280 280 280
[280]
280
[280]
300 300 300 290 290 290 290 290
WSpd 6 9 9 9 9
  [9]  
9
  [9]  
6 6 6 15 15 15 15 15
WGst -- -- -- -- --
  [--]  
--
  [--]  
-- -- -- 25 25 25 25 25

Raw TAF
KSFO 191220Z 1912/2018 28009KT P6SM FEW004 BKN008
  TEMPO 1916/1918 SCT012
  FM191800 30006KT P6SM FEW015
  FM192100 29015G25KT P6SM SKC
  FM200400 29013KT P6SM FEW010
  FM200900 28007KT P6SM BKN010
  FM201700 27008KT P6SM SCT015


Raw METAR
KSFO 191156Z 26006KT 10SM FEW004 OVC007 13/10 A3003 RMK AO2 SLP167 T01330100 10139 20133 55000
KSFO 191056Z 28009KT 10SM FEW004 BKN007 14/10 A3002 RMK AO2 SLP166 T01390100
KSFO 190956Z 28008KT 10SM FEW005 BKN007 14/11 A3002 RMK AO2 SLP166 T01390106

METAR Board
Radar Display
Forecast Discussion

FOR SITUATIONAL AWARENESS. NOT TO BE USED FOR FLIGHT PLANNING PURPOSES.